Time;durP1;ratioP1;P1;durP2;ratioP2;P2;SDS_P1;SDS_P2;PMS_P1;PMS_P2;Temp;Humidity;BMP_temperature;BMP_pressure;BME280_temperature;BME280_humidity;BME280_pressure;Samples;Min_cycle;Max_cycle;Signal;HPM_P1;HPM_P2
2023/01/15 00:02:04;;;;;;;;;;;17.60;90.30;;;;;;5097017;28;20264;-50
2023/01/15 00:04:29;;;;;;;;;;;17.60;90.20;;;;;;5095963;28;19956;-51
2023/01/15 00:06:54;;;;;;;;;;;17.60;90.20;;;;;;5096543;28;19978;-49
2023/01/15 00:09:20;;;;;;;;;;;17.60;90.20;;;;;;5097189;28;20252;-51
2023/01/15 00:11:45;;;;;;;;;;;17.60;90.20;;;;;;5096331;28;19923;-47
2023/01/15 00:14:11;;;;;;;;;;;17.60;90.20;;;;;;5096132;28;19915;-48
2023/01/15 00:16:39;;;;;;;;;;;17.60;90.20;;;;;;5096761;28;19916;-50
2023/01/15 00:19:07;;;;;;;;;;;17.60;90.20;;;;;;5096707;28;20007;-47
2023/01/15 00:21:32;;;;;;;;;;;17.60;90.20;;;;;;5094739;28;19919;-49
2023/01/15 00:29:26;;;;;;;;;;;17.50;90.20;;;;;;5096335;28;19996;-49
2023/01/15 00:31:57;;;;;;;;;;;17.50;90.20;;;;;;5094305;28;19947;-48
2023/01/15 00:34:22;;;;;;;;;;;17.50;90.30;;;;;;5096167;28;19954;-48
2023/01/15 00:36:48;;;;;;;;;;;17.50;90.30;;;;;;5096445;28;19924;-49
2023/01/15 00:39:13;;;;;;;;;;;17.50;90.30;;;;;;5096702;28;20049;-47
2023/01/15 00:41:39;;;;;;;;;;;17.50;90.30;;;;;;5095452;28;19908;-47
2023/01/15 00:44:04;;;;;;;;;;;17.50;90.30;;;;;;5095964;28;20270;-50
2023/01/15 00:46:30;;;;;;;;;;;17.50;90.30;;;;;;5096030;28;19923;-47
2023/01/15 00:48:55;;;;;;;;;;;17.50;90.30;;;;;;5095864;28;19957;-49
2023/01/15 00:51:21;;;;;;;;;;;17.50;90.30;;;;;;5095700;28;19914;-53
2023/01/15 00:53:46;;;;;;;;;;;17.50;90.40;;;;;;5094737;28;19921;-50
2023/01/15 00:56:12;;;;;;;;;;;17.50;90.40;;;;;;5094605;28;19918;-52
2023/01/15 00:58:37;;;;;;;;;;;17.50;90.40;;;;;;5094348;28;19919;-49
2023/01/15 01:01:03;;;;;;;;;;;17.50;90.50;;;;;;5094072;28;20391;-53
2023/01/15 01:03:28;;;;;;;;;;;17.50;90.50;;;;;;5095827;28;19915;-50
2023/01/15 01:05:58;;;;;;;;;;;17.50;90.50;;;;;;5095463;28;20310;-48
2023/01/15 01:08:24;;;;;;;;;;;17.60;90.60;;;;;;5095456;28;19935;-53
2023/01/15 01:10:49;;;;;;;;;;;17.50;90.60;;;;;;5094373;28;20371;-50
2023/01/15 01:13:14;;;;;;;;;;;17.50;90.60;;;;;;5095710;28;19978;-48
2023/01/15 01:15:40;;;;;;;;;;;17.60;90.60;;;;;;5095394;28;19908;-52
2023/01/15 01:18:05;;;;;;;;;;;17.60;90.60;;;;;;5095635;28;19908;-48
2023/01/15 01:20:31;;;;;;;;;;;17.60;90.50;;;;;;5076826;28;20363;-48
2023/01/15 01:22:57;;;;;;;;;;;17.60;90.50;;;;;;5095327;28;19909;-51
2023/01/15 01:25:22;;;;;;;;;;;17.60;90.50;;;;;;5095191;28;19912;-47
2023/01/15 01:27:48;;;;;;;;;;;17.60;90.50;;;;;;5095360;28;20347;-47
2023/01/15 01:30:14;;;;;;;;;;;17.60;90.50;;;;;;5095260;28;19916;-50
2023/01/15 01:32:42;;;;;;;;;;;17.60;90.40;;;;;;5092356;28;19955;-47
2023/01/15 01:35:07;;;;;;;;;;;17.70;90.50;;;;;;5095574;28;19912;-49
2023/01/15 01:37:33;;;;;;;;;;;17.60;90.50;;;;;;5095211;28;20376;-48
2023/01/15 01:39:58;;;;;;;;;;;17.60;90.50;;;;;;5095241;28;19951;-49
2023/01/15 01:42:24;;;;;;;;;;;17.60;90.50;;;;;;5093692;28;19908;-51
2023/01/15 01:44:50;;;;;;;;;;;17.60;90.40;;;;;;5095439;28;19916;-50
2023/01/15 01:47:21;;;;;;;;;;;17.60;90.40;;;;;;5094573;28;19912;-51
2023/01/15 01:49:48;;;;;;;;;;;17.60;90.70;;;;;;5095092;28;20004;-47
2023/01/15 01:52:15;;;;;;;;;;;17.60;90.50;;;;;;5076172;28;20517;-53
2023/01/15 01:54:42;;;;;;;;;;;17.60;90.50;;;;;;5094914;28;19912;-49
2023/01/15 01:57:08;;;;;;;;;;;17.60;90.50;;;;;;5094899;28;19915;-48
2023/01/15 01:59:35;;;;;;;;;;;17.60;90.50;;;;;;5094762;28;19915;-51
2023/01/15 02:02:01;;;;;;;;;;;17.60;90.50;;;;;;5094805;28;19915;-50
2023/01/15 02:04:27;;;;;;;;;;;17.60;90.60;;;;;;5093258;28;19908;-49
2023/01/15 02:06:53;;;;;;;;;;;17.50;90.60;;;;;;5094431;28;20332;-49
2023/01/15 02:09:18;;;;;;;;;;;17.50;90.60;;;;;;5094572;28;19912;-51
2023/01/15 02:11:44;;;;;;;;;;;17.50;90.60;;;;;;5094231;28;19934;-47
2023/01/15 02:14:21;;;;;;;;;;;17.50;90.60;;;;;;5094234;28;19930;-53
2023/01/15 02:16:50;;;;;;;;;;;17.50;90.70;;;;;;5094629;28;19908;-47
2023/01/15 02:19:18;;;;;;;;;;;17.50;90.70;;;;;;5094536;28;19908;-50
2023/01/15 02:21:46;;;;;;;;;;;17.50;90.60;;;;;;5093726;28;19912;-52
2023/01/15 02:24:27;;;;;;;;;;;17.50;90.70;;;;;;5094095;28;19912;-51
2023/01/15 02:27:10;;;;;;;;;;;17.50;90.70;;;;;;5093981;28;20002;-52
2023/01/15 02:29:51;;;;;;;;;;;17.50;90.70;;;;;;5093960;28;19912;-47
2023/01/15 02:32:22;;;;;;;;;;;17.50;90.70;;;;;;5093114;28;19998;-50
2023/01/15 02:34:51;;;;;;;;;;;17.50;90.70;;;;;;5094090;28;19943;-53
2023/01/15 02:37:20;;;;;;;;;;;17.50;90.60;;;;;;5094471;28;20011;-48
2023/01/15 02:39:46;;;;;;;;;;;17.50;90.70;;;;;;5094226;28;19946;-47
2023/01/15 02:42:13;;;;;;;;;;;17.50;90.60;;;;;;5093200;28;19919;-50
2023/01/15 02:44:44;;;;;;;;;;;17.60;90.50;;;;;;5093926;28;19908;-54
2023/01/15 02:47:10;;;;;;;;;;;17.60;90.50;;;;;;5093287;28;19916;-51
2023/01/15 02:49:37;;;;;;;;;;;17.60;90.50;;;;;;5095993;28;19919;-49
2023/01/15 02:52:05;;;;;;;;;;;17.60;90.50;;;;;;5093944;28;20373;-49
2023/01/15 02:54:35;;;;;;;;;;;17.60;90.60;;;;;;5094083;28;20266;-49
2023/01/15 02:57:01;;;;;;;;;;;17.60;90.60;;;;;;5093829;28;19912;-50
2023/01/15 02:59:34;;;;;;;;;;;17.60;90.70;;;;;;5092973;28;19927;-48
2023/01/15 03:02:02;;;;;;;;;;;17.60;90.80;;;;;;5093780;28;20285;-49
2023/01/15 03:04:31;;;;;;;;;;;17.60;90.80;;;;;;5093705;28;20420;-49
2023/01/15 03:07:06;;;;;;;;;;;17.60;90.80;;;;;;5093914;28;19991;-49
2023/01/15 03:09:32;;;;;;;;;;;17.60;90.80;;;;;;5092713;28;19916;-48
2023/01/15 03:12:04;;;;;;;;;;;17.60;90.80;;;;;;5094157;28;19961;-51
2023/01/15 03:14:43;;;;;;;;;;;17.60;90.80;;;;;;5075980;28;19919;-48
2023/01/15 03:17:21;;;;;;;;;;;17.60;90.80;;;;;;5079222;28;20400;-52
2023/01/15 03:19:52;;;;;;;;;;;17.60;90.80;;;;;;5096965;28;19912;-48
2023/01/15 03:22:17;;;;;;;;;;;17.60;90.80;;;;;;5097539;28;19970;-49
2023/01/15 03:24:49;;;;;;;;;;;17.60;90.80;;;;;;5097837;28;19912;-51
2023/01/15 03:27:14;;;;;;;;;;;17.60;90.80;;;;;;5097711;28;19990;-47
2023/01/15 03:29:47;;;;;;;;;;;17.60;90.80;;;;;;5096414;28;20299;-47
2023/01/15 03:32:14;;;;;;;;;;;17.60;90.80;;;;;;5098048;28;19931;-51
2023/01/15 03:34:42;;;;;;;;;;;17.60;90.80;;;;;;5097630;28;20281;-48
2023/01/15 03:37:07;;;;;;;;;;;17.60;90.80;;;;;;5097881;28;19995;-50
2023/01/15 03:39:33;;;;;;;;;;;17.50;90.80;;;;;;5096436;28;20033;-48
2023/01/15 03:42:07;;;;;;;;;;;17.60;90.80;;;;;;5097098;28;19916;-49
2023/01/15 03:44:51;;;;;;;;;;;17.60;90.80;;;;;;5097366;28;19909;-49
2023/01/15 03:47:22;;;;;;;;;;;17.50;90.80;;;;;;5097060;28;20370;-47
2023/01/15 03:49:53;;;;;;;;;;;17.60;90.70;;;;;;5096822;28;19920;-49
2023/01/15 03:52:22;;;;;;;;;;;17.50;90.70;;;;;;5097004;28;19914;-47
2023/01/15 03:55:05;;;;;;;;;;;17.60;90.70;;;;;;5097205;28;20007;-53
2023/01/15 03:57:31;;;;;;;;;;;17.60;90.80;;;;;;5096795;28;19908;-48
2023/01/15 03:59:59;;;;;;;;;;;17.50;90.80;;;;;;5096851;28;19953;-46
2023/01/15 04:02:25;;;;;;;;;;;17.50;90.80;;;;;;5096759;28;20223;-51
2023/01/15 04:04:52;;;;;;;;;;;17.50;90.80;;;;;;5097074;28;19919;-51
2023/01/15 04:07:18;;;;;;;;;;;17.50;90.80;;;;;;5078744;28;19919;-49
2023/01/15 04:09:43;;;;;;;;;;;17.50;90.80;;;;;;5096810;28;19923;-50
2023/01/15 04:12:09;;;;;;;;;;;17.50;90.90;;;;;;5096645;28;20002;-51
2023/01/15 04:14:35;;;;;;;;;;;17.50;90.90;;;;;;5096911;28;19961;-49
2023/01/15 04:17:00;;;;;;;;;;;17.50;90.90;;;;;;5096489;28;19912;-49
2023/01/15 04:19:26;;;;;;;;;;;17.50;90.90;;;;;;5094730;28;19912;-47
2023/01/15 04:21:51;;;;;;;;;;;17.50;90.90;;;;;;5095998;28;20262;-47
2023/01/15 04:24:17;;;;;;;;;;;17.50;90.90;;;;;;5096710;28;19991;-52
2023/01/15 04:26:42;;;;;;;;;;;17.50;90.90;;;;;;5096073;28;19919;-48
2023/01/15 04:29:07;;;;;;;;;;;17.60;90.90;;;;;;5094674;28;19976;-50
2023/01/15 04:31:34;;;;;;;;;;;17.50;90.90;;;;;;5096279;28;20356;-51
2023/01/15 04:34:01;;;;;;;;;;;17.50;90.90;;;;;;5096148;28;19927;-47
2023/01/15 04:36:26;;;;;;;;;;;17.50;90.90;;;;;;5096332;28;19926;-50
2023/01/15 04:38:53;;;;;;;;;;;17.50;90.90;;;;;;5096458;28;19908;-50
2023/01/15 04:44:06;;;;;;;;;;;17.50;90.90;;;;;;5096197;28;19962;-48
2023/01/15 04:46:42;;;;;;;;;;;17.60;90.90;;;;;;5096270;28;19912;-47
2023/01/15 04:49:10;;;;;;;;;;;17.50;90.90;;;;;;5096295;28;20015;-46
2023/01/15 04:51:36;;;;;;;;;;;17.60;90.90;;;;;;5095296;28;19982;-48
2023/01/15 04:54:02;;;;;;;;;;;17.60;90.90;;;;;;5095818;28;19998;-50
2023/01/15 04:56:28;;;;;;;;;;;17.60;90.90;;;;;;5095714;28;19909;-46
2023/01/15 04:58:53;;;;;;;;;;;17.60;90.90;;;;;;5095694;28;19912;-50
2023/01/15 05:01:19;;;;;;;;;;;17.60;90.90;;;;;;5094996;28;19908;-52
2023/01/15 05:03:44;;;;;;;;;;;17.60;90.90;;;;;;5095644;28;19912;-47
2023/01/15 05:06:10;;;;;;;;;;;17.60;90.90;;;;;;5095557;28;20368;-50
2023/01/15 05:08:35;;;;;;;;;;;17.60;90.90;;;;;;5095456;28;20415;-45
2023/01/15 05:11:02;;;;;;;;;;;17.60;90.90;;;;;;5095749;28;19912;-47
2023/01/15 05:13:29;;;;;;;;;;;17.60;90.90;;;;;;5095553;28;19908;-52
2023/01/15 05:15:54;;;;;;;;;;;17.60;90.90;;;;;;5095608;28;19930;-49
2023/01/15 05:18:20;;;;;;;;;;;17.50;90.90;;;;;;5094724;28;19944;-49
2023/01/15 05:20:45;;;;;;;;;;;17.50;90.90;;;;;;5095290;28;20283;-49
2023/01/15 05:23:11;;;;;;;;;;;17.50;90.90;;;;;;5095613;28;19962;-47
2023/01/15 05:25:36;;;;;;;;;;;17.50;90.90;;;;;;5095534;28;19908;-49
2023/01/15 05:28:02;;;;;;;;;;;17.50;90.90;;;;;;5095389;28;19920;-49
2023/01/15 05:30:27;;;;;;;;;;;17.50;90.90;;;;;;5094257;28;19994;-46
2023/01/15 05:32:53;;;;;;;;;;;17.50;90.90;;;;;;5095366;28;19912;-49
2023/01/15 05:35:18;;;;;;;;;;;17.50;90.90;;;;;;5095150;28;19908;-48
2023/01/15 05:37:43;;;;;;;;;;;17.50;90.90;;;;;;5095124;28;20424;-50
2023/01/15 05:40:09;;;;;;;;;;;17.50;90.90;;;;;;5092623;28;19909;-50
2023/01/15 05:42:35;;;;;;;;;;;17.50;91.00;;;;;;5094315;28;19965;-46
2023/01/15 05:45:00;;;;;;;;;;;17.50;90.90;;;;;;5095134;28;19970;-48
2023/01/15 05:47:26;;;;;;;;;;;17.50;90.90;;;;;;5094791;28;20263;-50
2023/01/15 05:49:51;;;;;;;;;;;17.50;90.90;;;;;;5093577;28;19935;-49
2023/01/15 05:52:17;;;;;;;;;;;17.50;90.90;;;;;;5094942;28;19981;-47
2023/01/15 05:54:42;;;;;;;;;;;17.50;90.90;;;;;;5094914;28;19908;-47
2023/01/15 05:57:10;;;;;;;;;;;17.50;90.90;;;;;;5094925;28;19915;-46
2023/01/15 05:59:35;;;;;;;;;;;17.50;90.80;;;;;;5093889;28;19908;-52
2023/01/15 06:02:01;;;;;;;;;;;17.50;90.90;;;;;;5093139;28;20339;-47
2023/01/15 06:04:26;;;;;;;;;;;17.50;90.80;;;;;;5094783;28;19909;-49
2023/01/15 06:06:53;;;;;;;;;;;17.50;90.90;;;;;;5094614;28;20317;-52
2023/01/15 06:09:19;;;;;;;;;;;17.50;90.90;;;;;;5094408;28;19998;-49
2023/01/15 06:11:44;;;;;;;;;;;17.50;90.90;;;;;;5094581;28;20001;-47
2023/01/15 06:14:11;;;;;;;;;;;17.50;90.90;;;;;;5092468;28;19957;-48
2023/01/15 06:16:37;;;;;;;;;;;17.50;90.90;;;;;;5093928;28;19981;-46
2023/01/15 06:19:03;;;;;;;;;;;17.50;90.90;;;;;;5094535;28;20358;-46
2023/01/15 06:21:30;;;;;;;;;;;17.50;90.90;;;;;;5075342;28;19931;-51
2023/01/15 06:23:55;;;;;;;;;;;17.50;90.90;;;;;;5092117;28;19951;-49
2023/01/15 06:26:21;;;;;;;;;;;17.50;91.00;;;;;;5114348;28;19959;-53
2023/01/15 06:28:46;;;;;;;;;;;17.50;91.00;;;;;;5103459;28;19919;-48
2023/01/15 06:31:13;;;;;;;;;;;17.60;91.00;;;;;;5094080;28;19915;-53
2023/01/15 06:33:39;;;;;;;;;;;17.60;91.00;;;;;;5092653;28;20309;-53
2023/01/15 06:36:09;;;;;;;;;;;17.60;91.00;;;;;;5094100;28;19927;-47
2023/01/15 06:38:35;;;;;;;;;;;17.50;91.00;;;;;;5093889;28;19916;-48
2023/01/15 06:41:01;;;;;;;;;;;17.50;90.90;;;;;;5105522;28;19908;-50
2023/01/15 06:48:54;;;;;;;;;;;17.50;90.90;;;;;;5093955;28;19919;-50
2023/01/15 06:51:20;;;;;;;;;;;17.50;91.00;;;;;;5079936;28;20298;-49
2023/01/15 06:53:46;;;;;;;;;;;17.50;90.90;;;;;;5099667;28;19962;-53
2023/01/15 06:56:15;;;;;;;;;;;17.50;90.90;;;;;;5100711;28;19965;-49
2023/01/15 06:58:41;;;;;;;;;;;17.50;90.90;;;;;;5100816;28;19912;-50
2023/01/15 07:01:10;;;;;;;;;;;17.50;90.90;;;;;;5100533;28;20286;-49
2023/01/15 07:03:36;;;;;;;;;;;17.60;90.90;;;;;;5100731;28;19912;-51
2023/01/15 07:06:05;;;;;;;;;;;17.60;90.90;;;;;;5099413;28;19927;-47
2023/01/15 07:08:30;;;;;;;;;;;17.60;90.90;;;;;;5085454;28;19920;-48
2023/01/15 07:11:00;;;;;;;;;;;17.60;91.00;;;;;;5082283;28;20366;-51
2023/01/15 07:13:26;;;;;;;;;;;17.60;90.80;;;;;;5099046;28;19918;-49
2023/01/15 07:15:51;;;;;;;;;;;17.50;90.80;;;;;;5100387;28;19960;-52
2023/01/15 07:18:16;;;;;;;;;;;17.50;90.80;;;;;;5100993;28;19908;-51
2023/01/15 07:20:42;;;;;;;;;;;17.60;90.80;;;;;;5100992;28;20265;-49
2023/01/15 07:23:07;;;;;;;;;;;17.60;90.80;;;;;;5099846;28;19966;-49
2023/01/15 07:25:33;;;;;;;;;;;17.60;90.80;;;;;;5099972;28;20003;-50
2023/01/15 07:27:58;;;;;;;;;;;17.60;90.80;;;;;;5100398;28;19912;-49
2023/01/15 07:30:24;;;;;;;;;;;17.60;90.70;;;;;;5100219;28;19912;-48
2023/01/15 07:32:49;;;;;;;;;;;17.60;90.80;;;;;;5090483;28;19912;-51
2023/01/15 07:35:15;;;;;;;;;;;17.60;90.90;;;;;;5115875;28;20346;-53
2023/01/15 07:37:42;;;;;;;;;;;17.60;90.80;;;;;;5116915;28;19911;-47
2023/01/15 07:40:08;;;;;;;;;;;17.60;90.80;;;;;;5097485;28;19916;-48
2023/01/15 07:50:46;;;;;;;;;;;17.60;90.90;;;;;;5101860;28;20393;-51
2023/01/15 07:53:12;;;;;;;;;;;17.60;90.80;;;;;;5097800;28;19912;-48
2023/01/15 07:55:37;;;;;;;;;;;17.60;90.80;;;;;;5099105;28;20386;-49
2023/01/15 07:58:03;;;;;;;;;;;17.60;90.90;;;;;;5098756;28;19971;-52
2023/01/15 08:00:28;;;;;;;;;;;17.60;90.80;;;;;;5097428;28;20339;-51
2023/01/15 08:02:54;;;;;;;;;;;17.60;87.60;;;;;;5098490;28;19949;-52
2023/01/15 08:05:19;;;;;;;;;;;17.60;89.80;;;;;;5095387;28;19916;-50
2023/01/15 08:07:46;;;;;;;;;;;17.60;90.50;;;;;;5096054;28;19916;-49
2023/01/15 08:10:12;;;;;;;;;;;17.60;90.70;;;;;;5095164;28;20367;-51
2023/01/15 08:15:22;;;;;;;;;;;17.50;90.60;;;;;;5079742;28;20008;-52
2023/01/15 08:17:48;;;;;;;;;;;17.60;90.70;;;;;;5076975;28;19950;-48
2023/01/15 08:20:18;;;;;;;;;;;17.60;90.70;;;;;;5095351;28;19915;-47
2023/01/15 08:22:43;;;;;;;;;;;17.60;90.70;;;;;;5095857;28;20358;-50
2023/01/15 08:25:10;;;;;;;;;;;17.60;90.70;;;;;;5097284;28;19995;-51
2023/01/15 08:27:36;;;;;;;;;;;17.60;90.70;;;;;;5096170;28;20006;-49
2023/01/15 08:30:03;;;;;;;;;;;17.60;90.60;;;;;;5095411;28;20339;-46
2023/01/15 08:32:28;;;;;;;;;;;17.60;90.60;;;;;;5096351;28;19947;-48
2023/01/15 08:34:54;;;;;;;;;;;17.60;90.50;;;;;;5094738;28;19955;-49
2023/01/15 08:37:19;;;;;;;;;;;17.60;90.50;;;;;;5095858;28;20007;-49
2023/01/15 08:39:45;;;;;;;;;;;17.60;90.60;;;;;;5095882;28;20344;-48
2023/01/15 08:42:10;;;;;;;;;;;17.60;90.60;;;;;;5096253;28;19957;-47
2023/01/15 08:44:36;;;;;;;;;;;17.60;90.60;;;;;;5099819;28;19973;-51
2023/01/15 08:47:01;;;;;;;;;;;17.60;90.70;;;;;;5116060;28;19999;-48
2023/01/15 08:49:27;;;;;;;;;;;17.60;90.80;;;;;;5101045;28;20317;-46
2023/01/15 08:51:52;;;;;;;;;;;17.60;90.80;;;;;;5094867;28;19995;-46
2023/01/15 08:54:19;;;;;;;;;;;17.60;90.80;;;;;;5093665;28;19920;-49
2023/01/15 08:56:45;;;;;;;;;;;17.60;90.80;;;;;;5087466;28;20290;-48
2023/01/15 08:59:10;;;;;;;;;;;17.60;90.80;;;;;;5075529;28;19913;-48
2023/01/15 09:01:36;;;;;;;;;;;17.60;90.80;;;;;;5079965;28;19927;-50
2023/01/15 09:04:02;;;;;;;;;;;17.60;90.70;;;;;;5094396;28;19919;-47
2023/01/15 09:06:27;;;;;;;;;;;17.60;90.80;;;;;;5095797;28;20028;-47
2023/01/15 09:08:53;;;;;;;;;;;17.60;90.80;;;;;;5095409;28;20278;-49
2023/01/15 09:11:18;;;;;;;;;;;17.60;90.80;;;;;;5095406;28;19908;-49
2023/01/15 09:13:45;;;;;;;;;;;17.50;90.80;;;;;;5076784;28;19962;-52
2023/01/15 09:16:11;;;;;;;;;;;17.60;90.80;;;;;;5095434;28;19957;-49
2023/01/15 09:18:37;;;;;;;;;;;17.50;90.80;;;;;;5095578;28;20309;-47
2023/01/15 09:21:04;;;;;;;;;;;17.60;90.80;;;;;;5095105;28;20231;-48
2023/01/15 09:23:29;;;;;;;;;;;17.50;90.80;;;;;;5077184;28;20295;-52
2023/01/15 09:25:59;;;;;;;;;;;17.60;90.80;;;;;;5093467;28;19908;-50
2023/01/15 09:28:26;;;;;;;;;;;17.60;90.80;;;;;;5094586;28;19916;-47
2023/01/15 09:30:51;;;;;;;;;;;17.60;90.80;;;;;;5095681;28;19908;-49
2023/01/15 09:33:17;;;;;;;;;;;17.60;90.70;;;;;;5076968;28;19908;-53
2023/01/15 09:35:43;;;;;;;;;;;17.60;90.70;;;;;;5094397;28;20200;-47
2023/01/15 09:38:12;;;;;;;;;;;17.60;90.70;;;;;;5077106;28;19912;-50
2023/01/15 09:40:55;;;;;;;;;;;17.60;90.70;;;;;;5094662;28;20371;-51
2023/01/15 09:43:21;;;;;;;;;;;17.60;90.70;;;;;;5095047;28;19919;-50
2023/01/15 09:46:12;;;;;;;;;;;17.60;90.80;;;;;;5093354;28;19908;-49
2023/01/15 09:48:53;;;;;;;;;;;17.60;90.70;;;;;;5091471;28;20015;-49
2023/01/15 09:51:26;;;;;;;;;;;17.60;90.60;;;;;;5094653;28;19977;-49
2023/01/15 09:54:15;;;;;;;;;;;17.60;90.60;;;;;;5094530;28;19908;-52
2023/01/15 09:56:40;;;;;;;;;;;17.60;90.50;;;;;;5075504;28;20305;-51
2023/01/15 09:59:15;;;;;;;;;;;17.70;90.60;;;;;;5092935;28;19927;-50
2023/01/15 10:01:41;;;;;;;;;;;17.70;90.50;;;;;;5107956;28;20265;-52
2023/01/15 10:04:25;;;;;;;;;;;17.70;90.30;;;;;;5102682;28;19918;-47
2023/01/15 10:06:54;;;;;;;;;;;17.60;90.20;;;;;;5106467;28;20309;-48
2023/01/15 10:09:22;;;;;;;;;;;17.70;90.50;;;;;;5105766;28;20387;-50
2023/01/15 10:14:39;;;;;;;;;;;17.60;90.40;;;;;;5089976;28;19965;-49
2023/01/15 10:17:18;;;;;;;;;;;17.70;90.40;;;;;;5107254;28;19926;-49
2023/01/15 10:19:43;;;;;;;;;;;17.60;90.20;;;;;;5091488;28;19939;-51
2023/01/15 10:22:15;;;;;;;;;;;17.70;90.30;;;;;;5104687;28;19947;-51
2023/01/15 10:24:44;;;;;;;;;;;17.60;90.40;;;;;;5098463;28;20358;-48
2023/01/15 10:27:17;;;;;;;;;;;17.60;90.40;;;;;;5090547;28;20019;-48
2023/01/15 10:29:48;;;;;;;;;;;17.60;90.30;;;;;;5092771;28;19908;-48
2023/01/15 10:32:20;;;;;;;;;;;17.60;90.30;;;;;;5093517;28;19911;-45
2023/01/15 10:35:04;;;;;;;;;;;17.60;90.30;;;;;;5100931;28;19966;-49
2023/01/15 10:37:33;;;;;;;;;;;17.60;90.30;;;;;;5093825;28;19973;-48
2023/01/15 10:39:58;;;;;;;;;;;17.60;90.30;;;;;;5114423;28;20010;-50
2023/01/15 10:42:53;;;;;;;;;;;17.60;90.30;;;;;;5110496;28;19954;-45
2023/01/15 10:45:24;;;;;;;;;;;17.60;90.30;;;;;;5008071;28;19910;-53
2023/01/15 10:47:52;;;;;;;;;;;17.60;90.30;;;;;;5094566;28;19912;-50
2023/01/15 10:50:19;;;;;;;;;;;17.60;90.30;;;;;;5094939;28;19919;-49
2023/01/15 10:53:06;;;;;;;;;;;17.60;90.30;;;;;;5101873;28;20468;-48
2023/01/15 10:55:34;;;;;;;;;;;17.50;90.30;;;;;;5101561;28;20331;-47
2023/01/15 10:58:06;;;;;;;;;;;17.50;90.30;;;;;;5095530;28;19911;-47
2023/01/15 11:00:31;;;;;;;;;;;17.50;90.30;;;;;;5109778;28;19908;-46
2023/01/15 11:03:00;;;;;;;;;;;17.50;90.30;;;;;;5092560;28;19908;-49
2023/01/15 11:05:26;;;;;;;;;;;17.50;90.50;;;;;;5092223;28;19920;-49
2023/01/15 11:07:52;;;;;;;;;;;17.50;90.30;;;;;;5093759;28;19958;-47
2023/01/15 11:10:20;;;;;;;;;;;17.60;90.30;;;;;;5098176;28;19911;-50
2023/01/15 11:21:15;;;;;;;;;;;17.50;90.20;;;;;;5093607;28;20149;-49
2023/01/15 11:23:41;;;;;;;;;;;17.50;90.30;;;;;;5092632;28;19912;-46
2023/01/15 11:26:06;;;;;;;;;;;17.50;90.30;;;;;;5093095;28;20381;-49
2023/01/15 11:28:34;;;;;;;;;;;17.50;90.20;;;;;;5103480;28;20002;-49
2023/01/15 11:30:59;;;;;;;;;;;17.50;90.20;;;;;;5101746;28;20246;-49
2023/01/15 11:33:26;;;;;;;;;;;17.50;90.20;;;;;;5093167;28;19904;-49
2023/01/15 11:35:57;;;;;;;;;;;17.50;90.20;;;;;;5089788;28;19959;-51
2023/01/15 11:38:23;;;;;;;;;;;17.50;90.20;;;;;;5081457;28;19915;-47
2023/01/15 11:40:53;;;;;;;;;;;17.50;90.40;;;;;;5096007;28;20305;-49
2023/01/15 11:51:40;;;;;;;;;;;17.50;90.20;;;;;;5095823;28;20261;-48
2023/01/15 11:54:07;;;;;;;;;;;17.60;90.20;;;;;;5106320;28;19915;-48
2023/01/15 11:56:34;;;;;;;;;;;17.60;90.20;;;;;;5107046;28;19914;-50
2023/01/15 11:59:08;;;;;;;;;;;17.50;90.20;;;;;;5114009;28;19904;-48
2023/01/15 12:01:38;;;;;;;;;;;17.50;90.20;;;;;;5111185;28;20403;-48
2023/01/15 12:04:05;;;;;;;;;;;17.60;90.20;;;;;;5093904;28;19994;-51
2023/01/15 12:06:33;;;;;;;;;;;17.60;90.20;;;;;;5095353;28;19962;-51
2023/01/15 12:09:03;;;;;;;;;;;17.60;90.20;;;;;;5096692;28;19960;-47
2023/01/15 12:11:38;;;;;;;;;;;17.60;90.20;;;;;;5098526;28;19907;-47
2023/01/15 12:14:07;;;;;;;;;;;17.50;90.10;;;;;;5116855;28;19910;-48
2023/01/15 12:16:49;;;;;;;;;;;17.60;90.20;;;;;;5095952;28;20342;-52
2023/01/15 12:19:25;;;;;;;;;;;17.50;90.20;;;;;;5083946;28;19915;-51
2023/01/15 12:22:11;;;;;;;;;;;17.60;90.20;;;;;;5117334;28;19908;-51
2023/01/15 12:24:45;;;;;;;;;;;17.60;90.20;;;;;;5102180;28;20270;-51
2023/01/15 12:27:19;;;;;;;;;;;17.50;90.20;;;;;;5102251;28;20278;-52
2023/01/15 12:29:47;;;;;;;;;;;17.50;90.10;;;;;;5095005;28;19912;-47
2023/01/15 12:32:15;;;;;;;;;;;17.50;90.10;;;;;;5099537;28;19912;-47
2023/01/15 12:34:49;;;;;;;;;;;17.50;90.10;;;;;;5116405;28;19953;-50
2023/01/15 12:37:35;;;;;;;;;;;17.50;90.10;;;;;;5099330;28;19916;-51
2023/01/15 12:40:12;;;;;;;;;;;17.50;90.10;;;;;;5085148;28;19908;-52
2023/01/15 12:45:35;;;;;;;;;;;17.50;90.10;;;;;;5096103;28;20006;-48
2023/01/15 12:48:12;;;;;;;;;;;17.50;90.10;;;;;;5093442;28;19916;-48
2023/01/15 12:50:43;;;;;;;;;;;17.50;90.10;;;;;;5095111;28;20362;-49
2023/01/15 12:53:16;;;;;;;;;;;17.50;90.10;;;;;;5075769;28;19986;-50
2023/01/15 12:56:04;;;;;;;;;;;17.50;90.20;;;;;;5082985;28;20249;-50
2023/01/15 12:58:30;;;;;;;;;;;17.50;90.20;;;;;;5086924;28;19913;-46
2023/01/15 13:01:02;;;;;;;;;;;17.50;90.20;;;;;;5093612;28;19916;-48
2023/01/15 13:03:43;;;;;;;;;;;17.50;90.20;;;;;;5095614;28;20371;-46
2023/01/15 13:06:10;;;;;;;;;;;17.50;90.10;;;;;;5111305;28;19953;-46
2023/01/15 13:08:44;;;;;;;;;;;17.50;90.10;;;;;;5116162;28;19908;-47
2023/01/15 13:11:13;;;;;;;;;;;17.50;90.10;;;;;;5105917;28;19915;-51
2023/01/15 13:13:39;;;;;;;;;;;17.50;90.10;;;;;;5082427;28;19908;-47
2023/01/15 13:16:10;;;;;;;;;;;17.50;90.10;;;;;;5108201;28;19915;-50
2023/01/15 13:18:43;;;;;;;;;;;17.50;90.10;;;;;;5095221;28;20002;-47
2023/01/15 13:21:13;;;;;;;;;;;17.50;90.10;;;;;;5097408;28;19903;-52
2023/01/15 13:23:53;;;;;;;;;;;17.50;90.10;;;;;;5106268;28;19916;-47
2023/01/15 13:26:18;;;;;;;;;;;17.50;90.10;;;;;;5085523;28;20042;-48
2023/01/15 13:29:03;;;;;;;;;;;17.50;90.10;;;;;;5093061;28;20002;-47
2023/01/15 13:31:45;;;;;;;;;;;17.50;90.10;;;;;;5094191;28;19908;-51
2023/01/15 13:34:14;;;;;;;;;;;17.50;90.10;;;;;;5076221;28;19928;-47
2023/01/15 13:36:41;;;;;;;;;;;17.50;90.10;;;;;;5092472;28;19923;-50
2023/01/15 13:39:14;;;;;;;;;;;17.50;90.10;;;;;;5093734;28;19908;-46
2023/01/15 13:44:28;;;;;;;;;;;17.50;90.10;;;;;;5092942;28;19915;-53
2023/01/15 13:46:59;;;;;;;;;;;17.50;90.10;;;;;;5094227;28;19912;-50
2023/01/15 13:49:27;;;;;;;;;;;17.50;90.10;;;;;;5093456;28;19944;-50
2023/01/15 13:51:55;;;;;;;;;;;17.50;90.10;;;;;;5093582;28;19915;-47
2023/01/15 13:54:22;;;;;;;;;;;17.50;90.10;;;;;;5092280;28;19916;-50
2023/01/15 13:56:48;;;;;;;;;;;17.50;90.10;;;;;;5092942;28;19908;-48
2023/01/15 13:59:32;;;;;;;;;;;17.50;90.10;;;;;;5101689;28;19960;-52
2023/01/15 14:01:58;;;;;;;;;;;17.50;90.10;;;;;;5096237;28;19964;-49
2023/01/15 14:04:36;;;;;;;;;;;17.50;90.10;;;;;;5099200;28;20010;-48
2023/01/15 14:07:01;;;;;;;;;;;17.50;90.10;;;;;;5090586;28;19966;-52
2023/01/15 14:09:28;;;;;;;;;;;17.50;90.10;;;;;;5094120;28;19948;-50
2023/01/15 14:12:12;;;;;;;;;;;17.40;90.10;;;;;;5092239;28;19912;-47
2023/01/15 14:14:56;;;;;;;;;;;17.40;90.10;;;;;;5104424;28;19912;-51
2023/01/15 14:17:31;;;;;;;;;;;17.50;90.10;;;;;;5102410;28;19998;-52
2023/01/15 14:20:02;;;;;;;;;;;17.40;90.10;;;;;;5079162;28;20374;-47
2023/01/15 14:22:35;;;;;;;;;;;17.40;90.10;;;;;;5094312;28;19908;-48
2023/01/15 14:25:00;;;;;;;;;;;17.40;90.10;;;;;;5101424;28;20007;-49
2023/01/15 14:27:38;;;;;;;;;;;17.40;90.10;;;;;;5094481;28;20016;-52
2023/01/15 14:30:10;;;;;;;;;;;17.40;90.10;;;;;;5104225;28;19916;-50
2023/01/15 14:32:35;;;;;;;;;;;17.40;90.10;;;;;;5097033;28;19912;-48
2023/01/15 14:35:01;;;;;;;;;;;17.40;90.10;;;;;;5112183;28;19919;-49
2023/01/15 14:37:30;;;;;;;;;;;17.40;90.10;;;;;;5089121;28;20397;-48
2023/01/15 14:39:58;;;;;;;;;;;17.40;90.10;;;;;;5092352;28;19916;-50
2023/01/15 14:45:20;;;;;;;;;;;17.40;90.10;;;;;;5092631;28;19918;-50
2023/01/15 14:47:47;;;;;;;;;;;17.40;90.00;;;;;;5096718;28;19916;-50
2023/01/15 14:50:24;;;;;;;;;;;17.50;90.10;;;;;;5092012;28;20032;-49
2023/01/15 14:52:50;;;;;;;;;;;17.50;90.10;;;;;;5092418;28;19919;-47
2023/01/15 14:55:16;;;;;;;;;;;17.50;90.10;;;;;;5093633;28;19920;-51
2023/01/15 14:57:53;;;;;;;;;;;17.50;90.10;;;;;;5092977;28;20003;-47
2023/01/15 15:00:19;;;;;;;;;;;17.50;90.10;;;;;;5092587;28;19957;-52
2023/01/15 15:02:47;;;;;;;;;;;17.50;90.10;;;;;;5093296;28;19939;-47
2023/01/15 15:05:14;;;;;;;;;;;17.50;90.00;;;;;;5092069;28;19920;-46
2023/01/15 15:07:42;;;;;;;;;;;17.50;90.00;;;;;;5093346;28;19912;-46
2023/01/15 15:10:12;;;;;;;;;;;17.50;90.10;;;;;;5074973;28;19963;-48
2023/01/15 15:12:37;;;;;;;;;;;17.50;90.10;;;;;;5096352;28;19915;-50
2023/01/15 15:15:18;;;;;;;;;;;17.50;90.10;;;;;;5097587;28;19908;-49
2023/01/15 15:18:04;;;;;;;;;;;17.50;90.10;;;;;;5097136;28;19999;-51